USNN

Details ICAO USNN (NJC)
Name NIZHNEVARTOVSK
Region Russia
Timezone Asia/Yekaterinburg (UTC+5.0)
Plans Departing 29
Arriving 26
Stats Elevation 177 ft / 54 m (AMSL)
Location 60.949272° 76.483618°
Runways 1
Magnetic Variation 15.734° E
Sunrise 2017-12-15 04:01:55 UTC / 2017-12-15 09:01:55 Local
Sunset 2017-12-15 09:39:06 UTC / 2017-12-15 14:39:06 Local
Advertisement - Login to hide

Runways

ID Width Length Bearing (true) Bearing (mag) Surface Threshold Offset Overrun Length
03 197 ft / 60 m 10,417 ft / 3,175 m 42.34° 26.61° Asphalt 0 ft / 0 m 245 ft / 75 m
21 197 ft / 60 m 10,417 ft / 3,175 m 222.38° 206.65° Asphalt 0 ft / 0 m 245 ft / 75 m

Map

Weather


0- 5 10 15 20 25 30 35+ Temperature / ° C

Clouds and Precipitation
Forecast for 2017-12-15 18:00 UTC. Updated 36 minutes ago

Ground ~20,000 ft ~40,000 ft Winds

METAR

USNN 151530Z 23006MPS 9999 OVC009 M08/M08 Q1031 R21/420237 NOSIG RMK QFE768

TAF

TAF USNN 151400Z 1515/1615 23006MPS CAVOK TEMPO 1515/1524 BKN010 BECMG 1603/1604 22003MPS

Frequencies

Ground 121.70 MHz TAXIING
Approach 134.30 MHz APP
Tower 118.10 MHz TWR
Approach 124.70 MHz APP
Warning: Do not use this data for real-world aviation or navigation. No guarantee of current accuracy is given.